x

Tanner Bank - 121nm West Of San Diego, Ca (46047) Wave Buoy

7:50 - Mon 23rd Jan 2017 All times are PST. -8 hours from GMT.

  • Sig Wave height 15.1ft
  • Swell Direction
  • Peak Period 14s
  • Average Period 9s
  • Wind
    25mph, 31mph gusts
  • Sea Temp 58°f
  • Air Temp 57°f
  • Sea Pressure 1013mb
  • Tanner Bank - 121nm West Of San Diego, Ca
  • Tanner Bank - 121nm West Of San Diego, Ca

More Historic Weather Station data

Upgrade to MSW Pro to gain access to the past 30 days of data for over 8000 Wavebouys and Weather Stations around the globe.

Join Pro

Comparision Forecast

View Surf forecast
   
lun. 01/23 7:50 15ft 14s 9s 25 31 mph 1013mb 58f 57f
6:50 14.5ft 14s 9s 20 25 mph 1013.2mb 58f 56f
4:50 14ft 15s 9s 25 29 mph 1012.7mb 58f 58f
3:50 12.5ft 15s 8s 22 27 mph 1013.1mb 58f 58f
2:50 13ft 14s 8s 22 29 mph 1013.4mb 58f 58f
1:50 12ft 14s 8s 22 27 mph 1013.8mb 58f 58f
12:50 12.5ft 14s 8s 22 27 mph 1013.8mb 58f 58f
dim. 01/22 11:50 11ft 15s 8s 22 29 mph 1014.2mb 58f 59f
10:50 12.5ft 16s 8s 18 25 mph 1014.4mb 58f 58f
9:50 13ft 16s 9s 25 31 mph 1013.9mb 58f 59f
8:50 13ft 16s 9s 18 22 mph 1013.7mb 58f 59f
7:50 13.5ft 16s 9s 13 18 mph 1014mb 58f 58f
6:50 14ft 15s 9s 13 18 mph 1013.7mb 58f 58f
5:50 15ft 16s 9s 13 18 mph 1013.4mb 58f 58f
4:50 16ft 16s 9s 9 13 mph 1012.7mb 58f 57f
3:50 16.5ft 16s 9s 13 18 mph 1012.3mb 58f 56f
2:50 17.5ft 15s 9s 27 31 mph 1011.6mb 58f 60f
1:50 15ft 16s 9s 27 34 mph 1011.8mb 58f 59f
12:50 15ft 16s 8s 27 34 mph 1012.8mb 58f 60f
11:50 14.5ft 16s 9s 29 36 mph 1013.9mb 58f 61f
10:50 16ft 16s 9s 27 34 mph 1015.3mb 58f 60f
9:50 14.5ft 15s 9s 25 34 mph 1015.8mb 58f 60f
8:50 15.5ft 16s 10s 25 29 mph 1015.8mb 58f 60f
7:50 15.5ft 16s 10s 22 27 mph 1015.6mb 58f 59f
6:50 17.5ft 16s 11s 20 27 mph 1015.8mb 58f 59f
5:50 18.5ft 17s 12s 18 22 mph 1015.9mb 58f 59f
4:50 19.5ft 17s 12s 18 22 mph 1016.3mb 58f 59f
3:50 18.5ft 17s 12s 18 22 mph 1016.5mb 58f 58f
2:50 18ft 17s 12s 18 22 mph 1016.9mb 58f 58f
1:50 18ft 17s 12s 18 25 mph 1017.3mb 58f 58f
12:50 20.5ft 19s 13s 16 22 mph 1017.6mb 58f 58f
sam. 01/21 11:50 19.5ft 19s 13s 13 18 mph 1018.3mb 58f 58f
10:50 21ft 19s 13s 11 18 mph 1018.9mb 58f 58f
9:50 20.5ft 19s 12s 11 16 mph 1018.2mb 58f 58f
8:50 20.5ft 19s 13s 7 11 mph 1018.3mb 58f 58f
7:50 20ft 17s 12s 7 11 mph 1018mb 58f 58f
6:50 24.5ft 19s 13s 9 13 mph 1017.8mb 58f 57f
5:50 23.5ft 17s 13s 9 13 mph 1017mb 58f 57f
4:50 24ft 17s 13s 7 11 mph 1016.3mb 58f 58f
3:50 21ft 17s 12s 9 16 mph 1016.3mb 58f 58f
2:50 23ft 17s 12s 4 11 mph 1016.3mb 58f 57f
1:50 22.5ft 17s 13s 7 13 mph 1016mb 58f 57f
12:50 19ft 15s 11s 11 16 mph 1016mb 58f 57f
11:50 20.5ft 16s 11s 11 18 mph 1016.3mb 58f 57f
10:50 17.5ft 16s 10s 16 18 mph 1016.1mb 58f 57f
9:50 17.5ft 15s 10s 16 22 mph 1015.2mb 58f 57f
8:50 17.5ft 14s 10s 16 22 mph 1013.6mb 58f 57f
7:50 17.5ft 14s 10s 18 25 mph 1012.5mb 58f 57f
6:50 16.5ft 16s 10s 22 27 mph 1011.3mb 58f 57f
5:50 17.5ft 16s 10s 20 25 mph 1009.9mb 58f 56f
4:50 16.5ft 16s 9s 25 31 mph 1008.4mb 58f 57f
3:50 14.5ft 15s 8s 27 34 mph 1007.7mb 58f 57f
2:50 15.5ft 11s 9s 27 31 mph 1006.9mb 58f 57f
1:50 15.5ft 13s 9s 25 29 mph 1006mb 58f 57f
12:50 15.5ft 13s 9s 27 31 mph 1005.5mb 59f 58f
ven. 01/20 11:50 15.5ft 12s 9s 22 29 mph 1005.5mb 59f 56f
10:50 15.5ft 12s 9s 27 36 mph 1005.3mb 59f 56f
9:50 16ft 15s 9s 25 31 mph 1004.3mb 58f 58f
8:50 16.5ft 14s 9s 27 34 mph 1003.5mb 58f 58f
7:50 16ft 15s 9s 27 31 mph 1003.2mb 59f 57f
6:50 14ft 14s 8s 31 38 mph 1002.4mb 59f 53f
5:50 15ft 15s 8s 27 34 mph 1001.4mb 59f 58f
4:50 14ft 15s 8s 27 34 mph 1001.4mb 59f 57f
3:50 15ft 15s 8s 34 45 mph 1001mb 59f 55f
2:50 12.5ft 15s 8s 27 38 mph 1000mb 59f 56f
1:50 14ft 15s 9s 27 34 mph 1000.1mb 59f 61f
12:50 12.5ft 16s 8s 27 31 mph 1000.7mb 59f 60f
11:50 12ft 15s 8s 31 40 mph 1001.4mb 59f 60f
10:50 12ft 15s 8s 29 36 mph 1002.9mb 59f 59f
9:50 11ft 16s 8s 27 31 mph 1005.1mb 59f 59f
8:50 11ft 14s 9s 25 31 mph 1006mb 59f 58f
7:50 13.5ft 14s 10s 20 27 mph 1006.9mb 59f 59f
6:50 12ft 13s 9s 18 20 mph 1007.3mb 59f 58f
5:50 14ft 14s 10s 18 22 mph 1008.2mb 59f 58f
4:50 11ft 15s 9s 20 25 mph 1008.5mb 59f 58f
3:50 10.5ft 13s 9s 16 20 mph 1009.7mb 59f 58f
2:50 11ft 12s 9s 18 20 mph 1010.3mb 59f 59f
1:50 10ft 13s 9s 13 18 mph 1010.6mb 59f 59f
12:50 9ft 12s 8s 16 20 mph 1011.8mb 59f 59f
jeu. 01/19 11:50 9ft 13s 8s 13 16 mph 1012.2mb 59f 59f
10:50 8ft 13s 8s 11 16 mph 1012.7mb 59f 59f
9:50 8.5ft 11s 8s 13 18 mph 1013.8mb 59f 59f
8:50 9ft 12s 8s 13 16 mph 1013.9mb 59f 59f
7:50 8ft 12s 8s 13 18 mph 1013.9mb 59f 59f
6:50 8ft 12s 8s 13 18 mph 1013.8mb 59f 59f
5:50 10ft 14s 9s 11 13 mph 1014.1mb 59f 59f